createdAt,value
2022-08-17T00:00:49.084Z,81.80
2022-08-17T00:02:26.283Z,81.88
2022-08-17T00:03:59.369Z,82.14
2022-08-17T00:05:36.346Z,82.10
2022-08-17T00:07:08.678Z,81.94
2022-08-17T00:08:44.867Z,82.23
2022-08-17T00:10:17.084Z,82.09
2022-08-17T00:12:03.909Z,82.27
2022-08-17T00:13:49.254Z,82.04
2022-08-17T00:15:22.350Z,82.25
2022-08-17T00:16:57.001Z,82.06
2022-08-17T00:19:05.818Z,82.01
2022-08-17T00:20:23.411Z,82.16
2022-08-17T00:22:31.004Z,82.11
2022-08-17T00:23:59.819Z,80.87
2022-08-17T00:25:34.754Z,80.64
2022-08-17T00:27:06.834Z,80.49
2022-08-17T00:28:39.491Z,80.86
2022-08-17T00:30:13.224Z,80.93
2022-08-17T00:31:45.281Z,80.97
2022-08-17T00:33:23.987Z,81.69
2022-08-17T00:34:56.090Z,82.13
2022-08-17T00:36:28.256Z,82.24
2022-08-17T00:38:00.549Z,82.32
2022-08-17T00:39:32.933Z,82.26
2022-08-17T00:41:08.832Z,82.26
2022-08-17T00:42:41.753Z,82.57
2022-08-17T00:44:13.958Z,82.46
2022-08-17T00:45:46.454Z,82.89
2022-08-17T00:47:18.594Z,82.89
2022-08-17T00:48:51.520Z,83.06
2022-08-17T00:50:23.530Z,83.15
2022-08-17T00:52:10.845Z,82.90
2022-08-17T00:53:50.491Z,82.90
2022-08-17T00:55:24.681Z,82.87
2022-08-17T00:57:07.814Z,82.46
2022-08-17T00:58:40.462Z,82.37
2022-08-17T01:00:21.585Z,82.71
2022-08-17T01:01:53.771Z,82.80
2022-08-17T01:03:27.052Z,82.60
2022-08-17T01:04:58.927Z,82.41
2022-08-17T01:06:32.291Z,82.10
2022-08-17T01:08:06.350Z,82.23
2022-08-17T01:09:38.911Z,82.01
2022-08-17T01:11:10.983Z,82.19
2022-08-17T01:12:43.119Z,82.25
2022-08-17T01:14:16.379Z,81.61
2022-08-17T01:16:03.967Z,81.72
2022-08-17T01:17:36.359Z,82.33
2022-08-17T01:19:17.949Z,81.69
2022-08-17T01:20:52.946Z,81.79
2022-08-17T01:22:25.586Z,81.85
2022-08-17T01:23:57.770Z,81.64
2022-08-17T01:25:30.175Z,81.71
2022-08-17T01:27:02.546Z,82.27
2022-08-17T01:28:54.437Z,82.21
2022-08-17T01:30:56.538Z,82.27
2022-08-17T01:32:20.203Z,82.39
2022-08-17T01:33:52.435Z,81.94
2022-08-17T01:35:24.644Z,82.40
2022-08-17T01:36:57.077Z,82.25
2022-08-17T01:38:32.097Z,82.27
2022-08-17T01:40:10.179Z,82.23
2022-08-17T01:41:42.500Z,81.95
2022-08-17T01:43:20.340Z,82.17
2022-08-17T01:44:57.015Z,81.85
2022-08-17T01:46:32.366Z,82.13
2022-08-17T01:48:05.329Z,82.37
2022-08-17T01:49:37.377Z,82.26
2022-08-17T01:51:09.717Z,82.21
2022-08-17T01:52:43.953Z,82.06
2022-08-17T01:54:18.345Z,81.94
2022-08-17T01:55:56.711Z,82.44
2022-08-17T01:57:28.770Z,81.84
2022-08-17T01:59:00.848Z,81.94
2022-08-17T02:00:47.102Z,81.84
2022-08-17T02:02:31.175Z,82.03
2022-08-17T02:04:04.599Z,82.51
2022-08-17T02:05:37.213Z,82.30
2022-08-17T02:07:09.348Z,82.36
2022-08-17T02:09:01.615Z,82.34
2022-08-17T02:10:35.151Z,82.26
2022-08-17T02:12:39.265Z,82.13
2022-08-17T02:14:02.702Z,82.45
2022-08-17T02:15:35.691Z,82.00
2022-08-17T02:17:07.738Z,81.86
2022-08-17T02:18:39.746Z,82.52
2022-08-17T02:20:11.862Z,82.96
2022-08-17T02:21:46.899Z,82.81
2022-08-17T02:23:19.287Z,83.23
2022-08-17T02:26:29.448Z,82.94
2022-08-17T02:28:01.565Z,82.56
2022-08-17T02:29:33.643Z,82.33
2022-08-17T02:31:09.327Z,82.53
2022-08-17T02:32:41.486Z,82.74
2022-08-17T02:34:13.519Z,82.48
2022-08-17T02:35:45.552Z,82.49
2022-08-17T02:37:18.548Z,82.67
2022-08-17T02:38:50.831Z,82.78
2022-08-17T02:40:36.197Z,82.57
2022-08-17T02:42:09.049Z,82.18
2022-08-17T02:43:41.291Z,82.04
2022-08-17T02:45:18.799Z,82.59
2022-08-17T02:46:50.897Z,83.00
2022-08-17T02:48:31.260Z,83.11
2022-08-17T02:50:05.953Z,82.69
2022-08-17T02:51:37.920Z,82.77
2022-08-17T02:53:09.933Z,82.62
2022-08-17T02:54:42.501Z,82.49
2022-08-17T02:56:14.602Z,82.63
2022-08-17T02:57:47.462Z,82.90
2022-08-17T02:59:19.556Z,82.78
2022-08-17T03:00:54.608Z,83.02
2022-08-17T03:02:26.881Z,83.01
2022-08-17T03:03:59.253Z,83.23
2022-08-17T03:05:33.470Z,83.34
2022-08-17T03:07:06.035Z,82.78
2022-08-17T03:08:38.584Z,82.95
2022-08-17T03:10:11.840Z,82.73
2022-08-17T03:11:43.949Z,82.95
2022-08-17T03:13:16.410Z,82.77
2022-08-17T03:14:48.473Z,83.25
2022-08-17T03:16:20.567Z,82.92
2022-08-17T03:17:54.034Z,82.73
2022-08-17T03:19:26.132Z,82.88
2022-08-17T03:21:01.055Z,82.86
2022-08-17T03:22:40.812Z,82.99
2022-08-17T03:24:13.389Z,82.78
2022-08-17T03:25:50.085Z,82.93
2022-08-17T03:27:25.331Z,82.58
2022-08-17T03:28:57.433Z,82.64
2022-08-17T03:30:29.746Z,82.61
2022-08-17T03:32:11.273Z,82.47
2022-08-17T03:33:43.337Z,82.21
2022-08-17T03:35:18.042Z,82.55
2022-08-17T03:36:51.058Z,82.71
2022-08-17T03:38:23.285Z,82.84
2022-08-17T03:39:55.822Z,82.57
2022-08-17T03:41:27.908Z,82.90
2022-08-17T03:43:06.153Z,82.80
2022-08-17T03:44:38.258Z,82.93
2022-08-17T03:46:35.138Z,82.99
2022-08-17T03:48:26.022Z,83.04
2022-08-17T03:50:16.773Z,82.64
2022-08-17T03:52:07.523Z,82.84
2022-08-17T03:54:13.136Z,82.79
2022-08-17T03:56:04.050Z,82.95
2022-08-17T03:57:37.171Z,82.70
2022-08-17T03:59:20.991Z,82.91
2022-08-17T04:00:55.665Z,82.75
2022-08-17T04:02:30.733Z,83.05
2022-08-17T04:04:02.827Z,83.07
2022-08-17T04:05:35.002Z,83.14
2022-08-17T04:07:07.719Z,83.25
2022-08-17T04:08:39.811Z,83.38
2022-08-17T04:10:11.915Z,83.05
2022-08-17T04:11:44.205Z,83.52
2022-08-17T04:13:16.373Z,82.91
2022-08-17T04:14:57.696Z,83.31
2022-08-17T04:16:30.157Z,83.46
2022-08-17T04:18:02.222Z,83.34
2022-08-17T04:19:34.265Z,83.39
2022-08-17T04:21:09.087Z,83.37
2022-08-17T04:22:55.549Z,83.16
2022-08-17T04:24:28.064Z,83.06
2022-08-17T04:26:00.491Z,83.54
2022-08-17T04:27:32.679Z,83.12
2022-08-17T04:29:04.778Z,83.15
2022-08-17T04:30:39.225Z,83.45
2022-08-17T04:32:11.365Z,83.56
2022-08-17T04:33:44.473Z,84.03
2022-08-17T04:35:21.329Z,84.00
2022-08-17T04:36:53.461Z,83.99
2022-08-17T04:38:28.513Z,84.25
2022-08-17T04:40:19.454Z,84.25
2022-08-17T04:42:17.458Z,84.40
2022-08-17T04:43:50.584Z,84.47
2022-08-17T04:45:22.580Z,84.37
2022-08-17T04:46:54.619Z,84.40
2022-08-17T04:48:36.168Z,84.29
2022-08-17T04:50:09.754Z,84.55
2022-08-17T04:51:56.168Z,84.12
2022-08-17T04:53:29.021Z,84.23
2022-08-17T04:55:04.767Z,84.40
2022-08-17T04:56:38.836Z,83.87
2022-08-17T04:58:10.748Z,83.96
2022-08-17T04:59:43.204Z,84.48
2022-08-17T05:01:16.299Z,84.05
2022-08-17T05:02:56.479Z,83.75
2022-08-17T05:04:34.396Z,84.16
2022-08-17T05:06:07.015Z,84.26
2022-08-17T05:07:39.238Z,83.89
2022-08-17T05:09:11.635Z,84.13
2022-08-17T05:10:45.401Z,84.10
2022-08-17T05:12:17.782Z,84.01
2022-08-17T05:13:50.593Z,83.84
2022-08-17T05:15:22.701Z,82.89
2022-08-17T05:16:54.814Z,82.89
2022-08-17T05:18:27.695Z,81.61
2022-08-17T05:19:59.745Z,82.29
2022-08-17T05:21:31.785Z,82.08
2022-08-17T05:23:07.957Z,81.09
2022-08-17T05:24:43.628Z,80.13
2022-08-17T05:26:26.646Z,80.39
2022-08-17T05:27:59.498Z,79.93
2022-08-17T05:29:35.403Z,79.50
2022-08-17T05:31:08.172Z,79.79
2022-08-17T05:32:40.563Z,79.10
2022-08-17T05:34:12.984Z,77.90
2022-08-17T05:35:47.491Z,77.97
2022-08-17T05:37:20.398Z,78.11
2022-08-17T05:38:52.615Z,78.26
2022-08-17T05:40:26.375Z,78.34
2022-08-17T05:42:04.914Z,77.83
2022-08-17T05:43:40.067Z,77.44
2022-08-17T05:45:12.285Z,77.05
2022-08-17T05:46:48.913Z,77.22
2022-08-17T05:48:21.097Z,77.51
2022-08-17T05:50:09.787Z,77.29
2022-08-17T05:51:48.109Z,77.68
2022-08-17T05:53:39.213Z,77.67
2022-08-17T05:55:23.495Z,77.21
2022-08-17T05:57:00.905Z,76.93
2022-08-17T05:58:57.969Z,77.29
2022-08-17T06:00:59.379Z,76.77
2022-08-17T06:02:59.411Z,76.57
2022-08-17T06:04:56.188Z,75.75
2022-08-17T06:06:40.111Z,75.62
2022-08-17T06:08:31.923Z,76.17
2022-08-17T06:10:27.313Z,75.87
2022-08-17T06:12:23.397Z,75.88
2022-08-17T06:14:14.555Z,75.99
2022-08-17T06:16:33.309Z,75.47
2022-08-17T06:18:09.323Z,74.66
2022-08-17T06:19:46.425Z,74.41
2022-08-17T06:21:19.985Z,74.07
2022-08-17T06:23:06.287Z,73.87
2022-08-17T06:24:44.287Z,73.76
2022-08-17T06:26:38.426Z,73.47
2022-08-17T06:28:16.630Z,72.94
2022-08-17T06:29:57.268Z,72.71
2022-08-17T06:31:35.347Z,72.41
2022-08-17T06:33:14.224Z,72.39
2022-08-17T06:34:46.592Z,71.42
2022-08-17T06:36:42.938Z,71.00
2022-08-17T06:38:37.531Z,71.02
2022-08-17T06:40:29.587Z,70.65
2022-08-17T06:43:02.054Z,71.03
2022-08-17T06:44:49.900Z,69.42
2022-08-17T06:46:36.594Z,69.15
2022-08-17T06:48:24.790Z,68.54
2022-08-17T06:50:07.463Z,68.31
2022-08-17T06:51:43.736Z,68.61
2022-08-17T06:53:26.953Z,68.24
2022-08-17T06:55:18.016Z,67.81
2022-08-17T06:57:14.834Z,67.93
2022-08-17T06:58:47.362Z,67.05
2022-08-17T07:00:24.841Z,66.23
2022-08-17T07:01:57.504Z,65.12
2022-08-17T07:03:41.486Z,63.17
2022-08-17T07:05:16.356Z,58.41
2022-08-17T07:06:53.347Z,55.44
2022-08-17T07:08:45.175Z,53.61
2022-08-17T07:10:18.628Z,51.35
2022-08-17T07:11:57.044Z,50.88
2022-08-17T07:13:41.953Z,51.67
2022-08-17T07:15:21.001Z,52.82
2022-08-17T07:16:55.121Z,53.16
2022-08-17T07:18:28.609Z,52.05
2022-08-17T07:20:15.249Z,49.78
2022-08-17T07:21:55.596Z,49.51
2022-08-17T07:23:42.545Z,48.02
2022-08-17T07:25:20.908Z,49.74
2022-08-17T07:27:10.953Z,49.21
2022-08-17T07:28:44.387Z,48.68
2022-08-17T07:30:24.307Z,46.95
2022-08-17T07:31:56.626Z,45.90
2022-08-17T07:33:32.295Z,47.75
2022-08-17T07:35:15.299Z,47.82
2022-08-17T07:36:47.900Z,46.39
2022-08-17T07:38:26.992Z,45.35
2022-08-17T07:40:16.282Z,45.20
2022-08-17T07:41:53.219Z,43.55
2022-08-17T07:43:41.972Z,44.42
2022-08-17T07:45:35.098Z,44.04
2022-08-17T07:47:35.018Z,44.81
2022-08-17T07:49:09.828Z,44.04
2022-08-17T07:50:42.216Z,43.00
2022-08-17T07:52:51.099Z,43.26
2022-08-17T07:54:37.979Z,43.13
2022-08-17T07:56:10.202Z,42.43
2022-08-17T07:57:42.301Z,41.51
2022-08-17T07:59:23.991Z,41.37
2022-08-17T08:01:11.807Z,40.97
2022-08-17T08:02:48.195Z,41.43
2022-08-17T08:06:24.310Z,42.67
2022-08-17T08:08:06.133Z,41.12
2022-08-17T08:09:43.031Z,40.17
2022-08-17T08:11:16.913Z,41.45
2022-08-17T08:12:53.753Z,40.36
2022-08-17T08:14:38.948Z,40.12
2022-08-17T08:16:32.194Z,39.54
2022-08-17T08:18:07.347Z,40.51
2022-08-17T08:19:39.491Z,39.58
2022-08-17T08:21:33.721Z,39.96
2022-08-17T08:23:50.790Z,39.68
2022-08-17T08:25:40.947Z,40.71
2022-08-17T08:27:34.228Z,39.80
2022-08-17T08:29:13.243Z,38.50
2022-08-17T08:30:49.850Z,38.65
2022-08-17T08:32:51.986Z,38.72
2022-08-17T08:35:01.502Z,37.16
2022-08-17T08:37:14.645Z,36.97
2022-08-17T08:39:24.573Z,37.56
2022-08-17T08:41:03.034Z,37.98
2022-08-17T08:42:35.275Z,36.87
2022-08-17T08:45:01.053Z,38.10
2022-08-17T08:46:49.023Z,37.39
2022-08-17T08:49:00.160Z,37.39
2022-08-17T08:50:47.904Z,36.48
2022-08-17T08:52:35.518Z,37.54
2022-08-17T08:54:29.277Z,37.14
2022-08-17T08:57:19.262Z,36.72
2022-08-17T08:58:47.744Z,36.90
2022-08-17T09:00:26.144Z,36.37
2022-08-17T09:02:34.734Z,36.09
2022-08-17T09:04:23.344Z,36.17
2022-08-17T09:06:32.251Z,36.59
2022-08-17T09:08:54.500Z,36.73
2022-08-17T09:10:35.826Z,35.93
2022-08-17T09:12:35.118Z,36.93
2022-08-17T09:14:21.798Z,35.72
2022-08-17T09:16:07.988Z,35.71
2022-08-17T09:17:48.066Z,36.33
2022-08-17T10:29:28.864Z,33.39
2022-08-17T10:31:33.570Z,33.79
2022-08-17T10:33:08.306Z,33.75
2022-08-17T10:34:49.827Z,32.82
2022-08-17T10:36:55.507Z,32.55
2022-08-17T10:38:46.619Z,31.69
2022-08-17T10:40:43.904Z,31.77
2022-08-17T10:42:32.695Z,31.80
2022-08-17T10:44:39.013Z,30.95
2022-08-17T10:46:34.501Z,30.79
2022-08-17T10:48:07.388Z,30.28
2022-08-17T10:49:56.628Z,30.43
2022-08-17T10:51:39.025Z,31.54
2022-08-17T10:53:11.272Z,30.12
2022-08-17T10:54:54.885Z,30.98
2022-08-17T10:56:46.623Z,31.16
2022-08-17T10:58:22.707Z,29.54
2022-08-17T10:59:56.635Z,31.27
2022-08-17T11:01:35.259Z,30.85
2022-08-17T11:03:26.465Z,29.60
2022-08-17T11:05:02.064Z,30.73
2022-08-17T11:06:42.363Z,29.43
2022-08-17T11:08:20.607Z,28.91
2022-08-17T11:10:09.431Z,29.88
2022-08-17T11:11:53.184Z,29.66
2022-08-17T11:13:34.260Z,29.70
2022-08-17T11:15:47.910Z,29.78
2022-08-17T11:17:44.867Z,30.38
2022-08-17T11:19:23.106Z,29.93
2022-08-17T11:21:15.347Z,30.70
2022-08-17T11:23:05.453Z,31.29
2022-08-17T11:24:48.228Z,31.35
2022-08-17T11:26:26.626Z,28.84
2022-08-17T11:28:09.264Z,29.14
2022-08-17T11:30:00.837Z,27.36
2022-08-17T11:31:41.615Z,28.24
2022-08-17T11:33:31.766Z,28.86
2022-08-17T11:35:22.056Z,28.93
2022-08-17T11:37:16.305Z,28.20
2022-08-17T11:39:04.847Z,28.18
2022-08-17T11:41:15.993Z,29.76
2022-08-17T11:43:07.904Z,29.72
2022-08-17T11:45:32.272Z,30.05
2022-08-17T11:47:37.115Z,28.52
2022-08-17T11:49:35.653Z,28.58
2022-08-17T11:51:33.585Z,28.55
2022-08-17T11:53:06.705Z,27.90
2022-08-17T11:54:47.823Z,26.76
2022-08-17T11:56:50.228Z,27.27
2022-08-17T11:58:31.193Z,27.55
2022-08-17T12:00:13.186Z,27.05
2022-08-17T12:01:56.183Z,26.38
2022-08-17T12:03:34.504Z,26.86
2022-08-17T12:05:13.027Z,26.52
2022-08-17T12:06:49.112Z,27.86
2022-08-17T12:08:24.386Z,28.69
2022-08-17T12:09:57.823Z,27.19
2022-08-17T12:12:13.134Z,27.63
2022-08-17T12:13:53.264Z,29.51
2022-08-17T12:15:32.057Z,27.98
2022-08-17T12:17:10.834Z,28.79
2022-08-17T12:18:54.062Z,27.99
2022-08-17T12:20:37.745Z,30.68
2022-08-17T12:22:12.864Z,28.50
2022-08-17T12:24:07.022Z,28.39
2022-08-17T12:25:43.689Z,27.04
2022-08-17T12:28:05.517Z,27.16
2022-08-17T12:29:38.801Z,26.57
2022-08-17T12:31:27.106Z,27.02
2022-08-17T12:32:59.524Z,27.80
2022-08-17T12:34:42.867Z,27.67
2022-08-17T12:36:17.537Z,27.15
2022-08-17T12:37:50.899Z,27.88
2022-08-17T12:39:26.071Z,27.77
2022-08-17T12:40:58.942Z,28.03
2022-08-17T12:42:35.427Z,28.10
2022-08-17T12:44:13.182Z,26.96
2022-08-17T12:45:46.780Z,27.80
2022-08-17T12:47:22.768Z,27.37
2022-08-17T12:49:13.738Z,26.80
2022-08-17T12:50:46.541Z,27.03
2022-08-17T12:52:29.377Z,26.36
2022-08-17T12:54:02.786Z,27.06
2022-08-17T12:55:44.857Z,26.56
2022-08-17T12:57:36.455Z,25.65
2022-08-17T12:59:11.413Z,26.53
2022-08-17T13:00:50.544Z,27.04
2022-08-17T13:02:28.790Z,28.14
2022-08-17T13:04:06.630Z,27.93
2022-08-17T13:05:42.302Z,28.10
2022-08-17T13:07:33.985Z,27.01
2022-08-17T13:09:13.745Z,26.79
2022-08-17T13:10:56.066Z,26.84
2022-08-17T13:12:36.941Z,28.36
2022-08-17T13:14:11.110Z,27.25
2022-08-17T13:15:53.428Z,27.30
2022-08-17T13:17:28.462Z,26.75
2022-08-17T13:19:10.470Z,26.11
2022-08-17T13:20:53.818Z,26.18
2022-08-17T13:22:26.798Z,26.61
2022-08-17T13:24:08.750Z,26.62
2022-08-17T13:25:41.271Z,26.72
2022-08-17T13:27:13.743Z,25.98
2022-08-17T13:28:50.223Z,26.63
2022-08-17T13:30:28.624Z,26.62
2022-08-17T13:32:13.434Z,27.38
2022-08-17T13:33:46.227Z,27.26
2022-08-17T13:35:39.070Z,24.86
2022-08-17T13:37:19.266Z,25.02
2022-08-17T13:39:13.826Z,25.14
2022-08-17T13:40:50.647Z,26.02
2022-08-17T13:42:31.989Z,25.54
2022-08-17T13:44:31.265Z,24.91
2022-08-17T13:46:37.349Z,26.45
2022-08-17T13:48:13.670Z,25.68
2022-08-17T13:49:49.039Z,25.34
2022-08-17T13:51:29.664Z,26.01
2022-08-17T13:53:02.066Z,25.62
2022-08-17T13:54:36.802Z,25.99
2022-08-17T13:56:33.210Z,26.14
2022-08-17T13:58:08.432Z,25.78
2022-08-17T13:59:54.851Z,25.29
2022-08-17T14:01:53.889Z,25.51
2022-08-17T14:03:26.628Z,25.18
2022-08-17T14:05:01.097Z,26.08
2022-08-17T14:06:54.219Z,25.76
2022-08-17T14:08:31.425Z,24.95
2022-08-17T14:10:03.905Z,25.58
2022-08-17T14:11:36.793Z,25.71
2022-08-17T14:13:08.806Z,25.87
2022-08-17T14:14:43.107Z,25.33
2022-08-17T14:16:16.232Z,24.76
2022-08-17T14:17:49.571Z,25.99
2022-08-17T14:19:25.498Z,25.70
2022-08-17T14:20:59.520Z,25.96
2022-08-17T14:22:34.869Z,25.51
2022-08-17T14:24:10.721Z,25.93
2022-08-17T14:25:43.266Z,26.71
2022-08-17T14:27:18.069Z,25.82
2022-08-17T14:28:54.592Z,26.62
2022-08-17T14:30:29.930Z,26.12
2022-08-17T14:32:07.559Z,25.70
2022-08-17T14:33:40.021Z,25.25
2022-08-17T14:35:15.097Z,26.41
2022-08-17T14:36:48.335Z,25.85
2022-08-17T14:38:21.423Z,25.54
2022-08-17T14:40:01.397Z,25.85
2022-08-17T14:41:33.906Z,24.91
2022-08-17T14:43:06.387Z,26.06
2022-08-17T14:44:42.066Z,26.66
2022-08-17T14:46:14.530Z,26.35
2022-08-17T14:47:47.601Z,25.57
2022-08-17T14:49:21.266Z,25.70
2022-08-17T14:50:53.724Z,25.98
2022-08-17T14:52:26.064Z,26.55
2022-08-17T14:53:58.591Z,25.98
2022-08-17T14:55:31.823Z,25.96
2022-08-17T14:57:23.330Z,26.02
2022-08-17T14:58:59.672Z,27.39
2022-08-17T15:00:33.989Z,25.27
2022-08-17T15:02:06.569Z,25.26
2022-08-17T15:03:40.062Z,25.54
2022-08-17T15:05:16.198Z,26.08
2022-08-17T15:06:49.432Z,25.90
2022-08-17T15:08:21.902Z,26.31
2022-08-17T15:09:54.010Z,26.06
2022-08-17T15:11:26.264Z,25.38
2022-08-17T15:12:59.234Z,25.52
2022-08-17T15:14:31.633Z,26.39
2022-08-17T15:16:04.391Z,25.93
2022-08-17T15:17:44.413Z,25.62
2022-08-17T15:19:18.516Z,25.86
2022-08-17T15:20:51.026Z,25.92
2022-08-17T15:22:25.668Z,26.16
2022-08-17T15:24:00.450Z,26.51
2022-08-17T15:25:33.252Z,26.47
2022-08-17T15:27:05.582Z,26.20
2022-08-17T15:28:38.383Z,26.43
2022-08-17T15:30:11.516Z,26.43
2022-08-17T15:31:43.888Z,27.31
2022-08-17T15:33:20.935Z,26.56
2022-08-17T15:34:58.948Z,26.91
2022-08-17T15:36:31.656Z,26.63
2022-08-17T15:38:11.737Z,27.02
2022-08-17T15:39:45.255Z,27.00
2022-08-17T15:41:18.861Z,26.72
2022-08-17T15:42:51.790Z,26.50
2022-08-17T15:44:24.388Z,27.09
2022-08-17T15:46:10.434Z,27.34
2022-08-17T15:47:43.986Z,27.98
2022-08-17T15:49:17.236Z,27.13
2022-08-17T15:50:49.425Z,27.78
2022-08-17T15:52:24.387Z,27.56
2022-08-17T15:54:04.307Z,27.31
2022-08-17T15:55:49.344Z,27.42
2022-08-17T15:57:27.514Z,27.06
2022-08-17T15:58:59.984Z,26.84
2022-08-17T16:00:35.452Z,26.77
2022-08-17T16:03:44.716Z,27.05
2022-08-17T16:04:29.610Z,27.39
2022-08-17T16:06:03.025Z,27.44
2022-08-17T16:07:35.801Z,27.30
2022-08-17T16:09:08.144Z,27.28
2022-08-17T16:10:40.748Z,27.41
2022-08-17T16:12:19.347Z,28.35
2022-08-17T16:13:54.726Z,27.98
2022-08-17T16:15:27.507Z,28.37
2022-08-17T16:16:59.801Z,28.71
2022-08-17T16:18:32.476Z,28.24
2022-08-17T16:20:05.751Z,29.20
2022-08-17T16:21:42.510Z,28.60
2022-08-17T16:23:20.101Z,28.28
2022-08-17T16:24:57.223Z,28.61
2022-08-17T16:26:31.338Z,28.49
2022-08-17T16:28:04.142Z,28.88
2022-08-17T16:29:38.052Z,29.24
2022-08-17T16:31:10.759Z,29.74
2022-08-17T16:32:43.224Z,28.87
2022-08-17T16:34:18.393Z,29.51
2022-08-17T16:35:51.108Z,29.41
2022-08-17T16:37:23.597Z,29.13
2022-08-17T16:38:57.543Z,29.82
2022-08-17T16:40:31.247Z,29.34
2022-08-17T16:42:30.554Z,29.77
2022-08-17T16:44:05.028Z,30.21
2022-08-17T16:45:41.071Z,30.33
2022-08-17T16:47:17.792Z,30.86
2022-08-17T16:48:52.785Z,30.81
2022-08-17T16:50:25.346Z,30.88
2022-08-17T16:52:02.227Z,31.20
2022-08-17T16:53:34.286Z,31.45
2022-08-17T16:55:10.226Z,31.63
2022-08-17T16:56:46.405Z,31.83
2022-08-17T16:58:18.707Z,32.04
2022-08-17T16:59:53.548Z,32.42
2022-08-17T17:01:25.744Z,32.44
2022-08-17T17:03:19.042Z,32.02
2022-08-17T17:05:06.432Z,32.32
2022-08-17T17:07:02.213Z,33.16
2022-08-17T17:08:47.491Z,32.63
2022-08-17T17:10:25.027Z,32.89
2022-08-17T17:12:00.622Z,32.78
2022-08-17T17:13:47.753Z,33.45
2022-08-17T17:15:22.214Z,33.03
2022-08-17T17:17:05.398Z,33.99
2022-08-17T17:18:41.826Z,33.58
2022-08-17T17:20:18.968Z,33.74
2022-08-17T17:21:53.666Z,33.87
2022-08-17T17:23:45.828Z,34.07
2022-08-17T17:25:29.251Z,34.47
2022-08-17T17:27:12.707Z,34.27
2022-08-17T17:29:04.456Z,34.95
2022-08-17T17:31:04.322Z,35.08
2022-08-17T17:32:41.503Z,35.55
2022-08-17T17:34:16.538Z,35.47
2022-08-17T17:35:54.784Z,35.29
2022-08-17T17:37:32.785Z,36.17
2022-08-17T17:39:08.936Z,36.36
2022-08-17T17:40:44.928Z,36.41
2022-08-17T17:42:21.251Z,37.29
2022-08-17T17:44:01.900Z,37.39
2022-08-17T17:45:44.099Z,42.35
2022-08-17T17:47:16.376Z,44.09
2022-08-17T17:48:48.543Z,44.26
2022-08-17T17:50:35.806Z,46.34
2022-08-17T17:52:38.122Z,49.57
2022-08-17T17:54:29.994Z,49.94
2022-08-17T17:56:43.248Z,48.94
2022-08-17T17:58:33.923Z,50.80
2022-08-17T18:00:16.313Z,50.41
2022-08-17T18:02:37.498Z,49.82
2022-08-17T18:04:47.703Z,50.71
2022-08-17T18:06:48.287Z,51.36
2022-08-17T18:08:33.988Z,52.73
2022-08-17T18:10:41.809Z,52.86
2022-08-17T18:12:39.426Z,53.06
2022-08-17T18:14:53.290Z,52.91
2022-08-17T18:16:27.624Z,52.29
2022-08-17T18:18:15.344Z,53.13
2022-08-17T18:19:48.658Z,52.90
2022-08-17T18:21:23.392Z,53.03
2022-08-17T18:22:55.992Z,53.20
2022-08-17T18:24:40.306Z,53.15
2022-08-17T18:26:12.704Z,53.49
2022-08-17T18:27:51.658Z,55.05
2022-08-17T18:29:34.870Z,54.57
2022-08-17T18:31:12.694Z,54.72
2022-08-17T18:32:47.031Z,54.24
2022-08-17T18:34:46.678Z,54.58
2022-08-17T18:36:36.637Z,54.44
2022-08-17T18:38:42.538Z,55.82
2022-08-17T18:40:17.380Z,56.38
2022-08-17T18:41:52.646Z,56.65
2022-08-17T18:43:27.507Z,56.79
2022-08-17T18:45:08.777Z,57.37
2022-08-17T18:46:40.996Z,57.93
2022-08-17T18:48:33.328Z,57.77
2022-08-17T18:50:27.312Z,58.54
2022-08-17T18:52:15.072Z,58.14
2022-08-17T18:54:16.947Z,58.82
2022-08-17T18:55:49.950Z,58.65
2022-08-17T18:57:33.342Z,59.03
2022-08-17T18:59:13.090Z,59.11
2022-08-17T19:00:47.184Z,58.24
2022-08-17T19:02:45.483Z,58.59
2022-08-17T19:04:33.951Z,59.86
2022-08-17T19:06:37.105Z,60.44
2022-08-17T19:08:24.137Z,60.61
2022-08-17T19:10:04.730Z,60.75
2022-08-17T19:11:37.343Z,60.58
2022-08-17T19:13:15.023Z,60.64
2022-08-17T19:14:58.301Z,60.97
2022-08-17T19:16:39.261Z,60.66
2022-08-17T19:18:23.095Z,61.13
2022-08-17T19:20:03.582Z,60.60
2022-08-17T19:21:45.752Z,61.63
2022-08-17T19:23:53.492Z,62.18
2022-08-17T19:25:32.317Z,62.11
2022-08-17T19:27:19.028Z,62.11
2022-08-17T19:28:59.247Z,62.08
2022-08-17T19:30:34.304Z,62.33
2022-08-17T19:32:10.958Z,62.32
2022-08-17T19:33:43.186Z,62.54
2022-08-17T19:35:22.513Z,62.15
2022-08-17T19:37:00.828Z,62.39
2022-08-17T19:38:42.254Z,62.44
2022-08-17T19:40:48.926Z,62.15
2022-08-17T19:42:50.122Z,62.89
2022-08-17T19:44:35.145Z,62.82
2022-08-17T19:46:59.588Z,62.79
2022-08-17T19:48:57.423Z,62.86
2022-08-17T19:50:58.045Z,62.90
2022-08-17T19:52:47.946Z,62.56
2022-08-17T19:54:40.619Z,62.20
2022-08-17T19:56:22.021Z,62.97
2022-08-17T19:58:06.447Z,62.41
2022-08-17T19:59:55.435Z,61.94
2022-08-17T20:01:50.270Z,62.78
2022-08-17T20:03:40.566Z,62.94
2022-08-17T20:05:18.707Z,62.74
2022-08-17T20:06:52.308Z,63.30
2022-08-17T20:08:27.472Z,62.91
2022-08-17T20:10:06.981Z,63.35
2022-08-17T20:11:54.916Z,63.44
2022-08-17T20:13:45.347Z,63.14
2022-08-17T20:15:32.218Z,62.82
2022-08-17T20:17:05.197Z,62.78
2022-08-17T20:18:38.891Z,63.25
2022-08-17T20:20:29.868Z,63.60
2022-08-17T20:22:11.170Z,63.81
2022-08-17T20:23:54.161Z,64.07
2022-08-17T20:25:50.858Z,64.16
2022-08-17T20:27:32.349Z,64.40
2022-08-17T20:29:06.752Z,65.36
2022-08-17T20:30:41.558Z,65.03
2022-08-17T20:32:23.908Z,65.00
2022-08-17T20:33:56.191Z,65.99
2022-08-17T20:35:39.570Z,65.62
2022-08-17T20:37:14.669Z,66.03
2022-08-17T20:38:50.029Z,66.20
2022-08-17T20:40:26.688Z,65.89
2022-08-17T20:42:15.982Z,66.62
2022-08-17T20:43:52.383Z,66.78
2022-08-17T20:45:25.380Z,66.93
2022-08-17T20:47:02.095Z,67.16
2022-08-17T20:48:42.009Z,67.17
2022-08-17T20:50:26.715Z,67.47
2022-08-17T20:52:09.329Z,67.72
2022-08-17T20:53:47.758Z,67.84
2022-08-17T20:55:51.658Z,67.51
2022-08-17T20:57:33.756Z,67.76
2022-08-17T20:59:05.909Z,68.00
2022-08-17T21:00:57.891Z,68.02
2022-08-17T21:02:30.286Z,68.01
2022-08-17T21:04:14.371Z,67.84
2022-08-17T21:06:09.422Z,68.16
2022-08-17T21:07:56.033Z,67.86
2022-08-17T21:09:30.715Z,68.73
2022-08-17T21:11:57.261Z,68.29
2022-08-17T21:13:53.659Z,68.47
2022-08-17T21:15:57.372Z,68.78
2022-08-17T21:17:38.998Z,68.42
2022-08-17T21:19:37.628Z,68.80
2022-08-17T21:22:02.189Z,68.55
2022-08-17T21:24:03.466Z,68.79
2022-08-17T21:26:10.466Z,68.43
2022-08-17T21:28:07.541Z,68.82
2022-08-17T21:30:13.518Z,69.18
2022-08-17T21:31:58.019Z,69.30
2022-08-17T21:33:32.935Z,69.76
2022-08-17T21:35:07.813Z,69.38
2022-08-17T21:36:39.903Z,69.42
2022-08-17T21:38:14.597Z,69.34
2022-08-17T21:39:52.465Z,69.28
2022-08-17T21:41:34.095Z,69.05
2022-08-17T21:43:24.912Z,69.52
2022-08-17T21:45:01.264Z,69.66
2022-08-17T21:46:38.164Z,69.62
2022-08-17T21:48:15.584Z,69.85
2022-08-17T21:49:48.477Z,69.46
2022-08-17T21:51:26.398Z,70.13
2022-08-17T21:52:59.124Z,69.75
2022-08-17T21:54:39.072Z,69.65
2022-08-17T21:56:13.310Z,69.95
2022-08-17T21:57:53.011Z,69.71
2022-08-17T21:59:39.628Z,70.12
2022-08-17T22:01:27.274Z,70.09
2022-08-17T22:03:04.680Z,69.74
2022-08-17T22:04:41.528Z,69.96
2022-08-17T22:06:34.736Z,70.25
2022-08-17T22:08:19.405Z,70.69
2022-08-17T22:09:51.482Z,70.36
2022-08-17T22:11:23.533Z,70.58
2022-08-17T22:13:22.884Z,70.71
2022-08-17T22:15:06.392Z,70.83
2022-08-17T22:16:39.314Z,70.71
2022-08-17T22:18:19.696Z,70.74
2022-08-17T22:19:56.741Z,71.38
2022-08-17T22:21:29.000Z,71.41
2022-08-17T22:23:19.493Z,71.42
2022-08-17T22:25:00.454Z,71.24
2022-08-17T22:27:06.216Z,71.18
2022-08-17T22:28:40.521Z,71.13
2022-08-17T22:30:30.272Z,71.33
2022-08-17T22:32:02.293Z,71.37
2022-08-17T22:33:42.206Z,71.25
2022-08-17T22:35:29.657Z,71.39
2022-08-17T22:37:31.820Z,71.05
2022-08-17T22:39:09.736Z,71.22
2022-08-17T22:40:41.752Z,71.57
2022-08-17T22:42:15.683Z,71.57
2022-08-17T22:43:48.526Z,71.16
2022-08-17T22:45:20.647Z,71.70
2022-08-17T22:47:02.193Z,71.41
2022-08-17T22:48:34.941Z,71.33
2022-08-17T22:50:25.128Z,71.35
2022-08-17T22:52:06.411Z,71.51
2022-08-17T22:53:57.334Z,71.09
2022-08-17T22:55:52.767Z,71.21